sensor_id;sensor_type;location;lat;lon;timestamp;temperature;humidity
4390;DHT22;2209;48.982;8.406;2023-03-08T00:01:57;7.30;92.10
4390;DHT22;2209;48.982;8.406;2023-03-08T00:04:20;7.30;92.30
4390;DHT22;2209;48.982;8.406;2023-03-08T00:06:42;7.30;92.60
4390;DHT22;2209;48.982;8.406;2023-03-08T00:09:04;7.30;93.10
4390;DHT22;2209;48.982;8.406;2023-03-08T00:11:28;7.30;93.40
4390;DHT22;2209;48.982;8.406;2023-03-08T00:13:50;7.20;93.40
4390;DHT22;2209;48.982;8.406;2023-03-08T00:16:12;7.20;93.40
4390;DHT22;2209;48.982;8.406;2023-03-08T00:18:35;7.20;93.40
4390;DHT22;2209;48.982;8.406;2023-03-08T00:20:59;7.20;93.30
4390;DHT22;2209;48.982;8.406;2023-03-08T00:23:21;7.10;93.30
4390;DHT22;2209;48.982;8.406;2023-03-08T00:25:43;7.10;93.20
4390;DHT22;2209;48.982;8.406;2023-03-08T00:28:05;7.10;93.20
4390;DHT22;2209;48.982;8.406;2023-03-08T00:30:28;7.10;93.20
4390;DHT22;2209;48.982;8.406;2023-03-08T00:32:50;7.10;93.10
4390;DHT22;2209;48.982;8.406;2023-03-08T00:35:12;7.10;93.10
4390;DHT22;2209;48.982;8.406;2023-03-08T00:37:35;7.00;93.00
4390;DHT22;2209;48.982;8.406;2023-03-08T00:39:57;7.00;93.00
4390;DHT22;2209;48.982;8.406;2023-03-08T00:42:20;7.00;93.30
4390;DHT22;2209;48.982;8.406;2023-03-08T00:44:43;7.00;93.00
4390;DHT22;2209;48.982;8.406;2023-03-08T00:47:05;7.00;93.00
4390;DHT22;2209;48.982;8.406;2023-03-08T00:49:28;7.00;93.00
4390;DHT22;2209;48.982;8.406;2023-03-08T00:51:50;7.00;93.00
4390;DHT22;2209;48.982;8.406;2023-03-08T00:54:14;7.00;93.00
4390;DHT22;2209;48.982;8.406;2023-03-08T00:56:36;7.00;93.00
4390;DHT22;2209;48.982;8.406;2023-03-08T00:59:00;7.00;93.00
4390;DHT22;2209;48.982;8.406;2023-03-08T01:01:22;7.00;93.00
4390;DHT22;2209;48.982;8.406;2023-03-08T01:03:46;6.90;92.90
4390;DHT22;2209;48.982;8.406;2023-03-08T01:06:12;6.90;93.00
4390;DHT22;2209;48.982;8.406;2023-03-08T01:08:35;6.90;93.00
4390;DHT22;2209;48.982;8.406;2023-03-08T01:10:59;6.90;93.00
4390;DHT22;2209;48.982;8.406;2023-03-08T01:13:23;6.90;92.90
4390;DHT22;2209;48.982;8.406;2023-03-08T01:15:45;6.90;92.90
4390;DHT22;2209;48.982;8.406;2023-03-08T01:18:08;6.90;92.90
4390;DHT22;2209;48.982;8.406;2023-03-08T01:20:36;6.90;92.90
4390;DHT22;2209;48.982;8.406;2023-03-08T01:22:58;6.90;92.90
4390;DHT22;2209;48.982;8.406;2023-03-08T01:25:20;6.90;92.90
4390;DHT22;2209;48.982;8.406;2023-03-08T01:27:44;6.90;92.90
4390;DHT22;2209;48.982;8.406;2023-03-08T01:30:07;6.90;92.90
4390;DHT22;2209;48.982;8.406;2023-03-08T01:32:29;6.90;92.80
4390;DHT22;2209;48.982;8.406;2023-03-08T01:34:51;6.90;92.80
4390;DHT22;2209;48.982;8.406;2023-03-08T01:37:13;6.90;92.90
4390;DHT22;2209;48.982;8.406;2023-03-08T01:39:37;6.90;92.90
4390;DHT22;2209;48.982;8.406;2023-03-08T01:42:02;6.80;92.80
4390;DHT22;2209;48.982;8.406;2023-03-08T01:44:28;6.80;92.90
4390;DHT22;2209;48.982;8.406;2023-03-08T01:46:51;6.80;93.00
4390;DHT22;2209;48.982;8.406;2023-03-08T01:49:15;6.80;92.90
4390;DHT22;2209;48.982;8.406;2023-03-08T01:51:41;6.80;93.00
4390;DHT22;2209;48.982;8.406;2023-03-08T01:54:07;6.80;92.90
4390;DHT22;2209;48.982;8.406;2023-03-08T01:56:31;6.80;92.90
4390;DHT22;2209;48.982;8.406;2023-03-08T01:58:54;6.80;92.90
4390;DHT22;2209;48.982;8.406;2023-03-08T02:01:18;6.80;92.90
4390;DHT22;2209;48.982;8.406;2023-03-08T02:03:40;6.80;92.90
4390;DHT22;2209;48.982;8.406;2023-03-08T02:06:03;6.80;93.00
4390;DHT22;2209;48.982;8.406;2023-03-08T02:08:25;6.80;93.00
4390;DHT22;2209;48.982;8.406;2023-03-08T02:10:47;6.70;93.00
4390;DHT22;2209;48.982;8.406;2023-03-08T02:13:11;6.70;93.10
4390;DHT22;2209;48.982;8.406;2023-03-08T02:15:34;6.70;93.10
4390;DHT22;2209;48.982;8.406;2023-03-08T02:17:57;6.70;93.10
4390;DHT22;2209;48.982;8.406;2023-03-08T02:20:23;6.70;93.20
4390;DHT22;2209;48.982;8.406;2023-03-08T02:22:47;6.70;93.10
4390;DHT22;2209;48.982;8.406;2023-03-08T02:25:13;6.70;93.20
4390;DHT22;2209;48.982;8.406;2023-03-08T02:27:36;6.70;93.20
4390;DHT22;2209;48.982;8.406;2023-03-08T02:29:58;6.70;93.20
4390;DHT22;2209;48.982;8.406;2023-03-08T02:32:20;6.70;93.20
4390;DHT22;2209;48.982;8.406;2023-03-08T02:34:42;6.70;93.20
4390;DHT22;2209;48.982;8.406;2023-03-08T02:37:05;6.70;93.10
4390;DHT22;2209;48.982;8.406;2023-03-08T02:39:28;6.80;93.10
4390;DHT22;2209;48.982;8.406;2023-03-08T02:41:50;6.80;93.00
4390;DHT22;2209;48.982;8.406;2023-03-08T02:44:12;6.80;93.10
4390;DHT22;2209;48.982;8.406;2023-03-08T02:46:34;6.70;92.90
4390;DHT22;2209;48.982;8.406;2023-03-08T02:48:56;6.80;92.90
4390;DHT22;2209;48.982;8.406;2023-03-08T02:51:18;6.80;92.80
4390;DHT22;2209;48.982;8.406;2023-03-08T02:53:40;6.80;92.80
4390;DHT22;2209;48.982;8.406;2023-03-08T02:56:04;6.80;92.80
4390;DHT22;2209;48.982;8.406;2023-03-08T02:58:26;6.80;92.80
4390;DHT22;2209;48.982;8.406;2023-03-08T03:00:48;6.80;92.70
4390;DHT22;2209;48.982;8.406;2023-03-08T03:03:10;6.80;92.70
4390;DHT22;2209;48.982;8.406;2023-03-08T03:05:33;6.80;92.70
4390;DHT22;2209;48.982;8.406;2023-03-08T03:07:55;6.80;92.60
4390;DHT22;2209;48.982;8.406;2023-03-08T03:10:18;6.80;92.60
4390;DHT22;2209;48.982;8.406;2023-03-08T03:12:41;6.80;92.60
4390;DHT22;2209;48.982;8.406;2023-03-08T03:15:06;6.80;92.60
4390;DHT22;2209;48.982;8.406;2023-03-08T03:17:28;6.80;92.60
4390;DHT22;2209;48.982;8.406;2023-03-08T03:19:50;6.80;92.70
4390;DHT22;2209;48.982;8.406;2023-03-08T03:22:12;6.80;92.70
4390;DHT22;2209;48.982;8.406;2023-03-08T03:24:34;6.80;92.70
4390;DHT22;2209;48.982;8.406;2023-03-08T03:26:56;6.80;92.70
4390;DHT22;2209;48.982;8.406;2023-03-08T03:29:20;6.70;92.70
4390;DHT22;2209;48.982;8.406;2023-03-08T03:31:42;6.70;92.80
4390;DHT22;2209;48.982;8.406;2023-03-08T03:34:04;6.70;92.80
4390;DHT22;2209;48.982;8.406;2023-03-08T03:36:27;6.70;92.90
4390;DHT22;2209;48.982;8.406;2023-03-08T03:38:49;6.70;92.90
4390;DHT22;2209;48.982;8.406;2023-03-08T03:41:13;6.70;93.00
4390;DHT22;2209;48.982;8.406;2023-03-08T03:43:37;6.70;93.00
4390;DHT22;2209;48.982;8.406;2023-03-08T03:46:02;6.70;93.00
4390;DHT22;2209;48.982;8.406;2023-03-08T03:48:24;6.70;93.10
4390;DHT22;2209;48.982;8.406;2023-03-08T03:50:53;6.70;93.20
4390;DHT22;2209;48.982;8.406;2023-03-08T03:53:15;6.70;93.30
4390;DHT22;2209;48.982;8.406;2023-03-08T03:55:37;6.70;93.30
4390;DHT22;2209;48.982;8.406;2023-03-08T03:57:59;6.70;93.20
4390;DHT22;2209;48.982;8.406;2023-03-08T04:00:21;6.70;93.30
4390;DHT22;2209;48.982;8.406;2023-03-08T04:02:45;6.70;93.30
4390;DHT22;2209;48.982;8.406;2023-03-08T04:05:07;6.70;93.40
4390;DHT22;2209;48.982;8.406;2023-03-08T04:07:29;6.60;93.40
4390;DHT22;2209;48.982;8.406;2023-03-08T04:09:51;6.60;93.60
4390;DHT22;2209;48.982;8.406;2023-03-08T04:12:13;6.60;93.70
4390;DHT22;2209;48.982;8.406;2023-03-08T04:14:35;6.60;93.70
4390;DHT22;2209;48.982;8.406;2023-03-08T04:17:00;6.60;93.80
4390;DHT22;2209;48.982;8.406;2023-03-08T04:19:23;6.60;93.90
4390;DHT22;2209;48.982;8.406;2023-03-08T04:21:45;6.50;93.90
4390;DHT22;2209;48.982;8.406;2023-03-08T04:24:07;6.50;93.90
4390;DHT22;2209;48.982;8.406;2023-03-08T04:26:30;6.50;93.90
4390;DHT22;2209;48.982;8.406;2023-03-08T04:28:52;6.50;93.90
4390;DHT22;2209;48.982;8.406;2023-03-08T04:31:16;6.50;93.80
4390;DHT22;2209;48.982;8.406;2023-03-08T04:33:38;6.50;93.90
4390;DHT22;2209;48.982;8.406;2023-03-08T04:36:02;6.60;93.90
4390;DHT22;2209;48.982;8.406;2023-03-08T04:38:24;6.50;93.90
4390;DHT22;2209;48.982;8.406;2023-03-08T04:40:48;6.60;94.00
4390;DHT22;2209;48.982;8.406;2023-03-08T04:43:25;6.60;94.00
4390;DHT22;2209;48.982;8.406;2023-03-08T04:45:47;6.60;94.00
4390;DHT22;2209;48.982;8.406;2023-03-08T04:48:09;6.60;94.00
4390;DHT22;2209;48.982;8.406;2023-03-08T04:50:31;6.60;94.00
4390;DHT22;2209;48.982;8.406;2023-03-08T04:52:55;6.60;94.00
4390;DHT22;2209;48.982;8.406;2023-03-08T04:55:17;6.60;94.00
4390;DHT22;2209;48.982;8.406;2023-03-08T04:57:39;6.60;94.00
4390;DHT22;2209;48.982;8.406;2023-03-08T05:00:01;6.60;94.10
4390;DHT22;2209;48.982;8.406;2023-03-08T05:02:25;6.60;94.10
4390;DHT22;2209;48.982;8.406;2023-03-08T05:04:47;6.60;94.10
4390;DHT22;2209;48.982;8.406;2023-03-08T05:07:09;6.60;94.10
4390;DHT22;2209;48.982;8.406;2023-03-08T05:09:33;6.60;94.10
4390;DHT22;2209;48.982;8.406;2023-03-08T05:11:55;6.60;94.00
4390;DHT22;2209;48.982;8.406;2023-03-08T05:14:18;6.60;94.00
4390;DHT22;2209;48.982;8.406;2023-03-08T05:16:41;6.60;94.00
4390;DHT22;2209;48.982;8.406;2023-03-08T05:19:03;6.60;94.00
4390;DHT22;2209;48.982;8.406;2023-03-08T05:21:25;6.60;94.00
4390;DHT22;2209;48.982;8.406;2023-03-08T05:23:47;6.60;94.10
4390;DHT22;2209;48.982;8.406;2023-03-08T05:26:12;6.60;94.10
4390;DHT22;2209;48.982;8.406;2023-03-08T05:28:35;6.60;94.20
4390;DHT22;2209;48.982;8.406;2023-03-08T05:31:01;6.60;94.20
4390;DHT22;2209;48.982;8.406;2023-03-08T05:33:23;6.50;94.20
4390;DHT22;2209;48.982;8.406;2023-03-08T05:35:51;6.60;94.30
4390;DHT22;2209;48.982;8.406;2023-03-08T05:38:14;6.60;94.30
4390;DHT22;2209;48.982;8.406;2023-03-08T05:40:37;6.60;94.30
4390;DHT22;2209;48.982;8.406;2023-03-08T05:43:00;6.60;94.30
4390;DHT22;2209;48.982;8.406;2023-03-08T05:45:23;6.60;94.40
4390;DHT22;2209;48.982;8.406;2023-03-08T05:47:45;6.60;94.40
4390;DHT22;2209;48.982;8.406;2023-03-08T05:50:08;6.60;94.50
4390;DHT22;2209;48.982;8.406;2023-03-08T05:52:33;6.60;94.60
4390;DHT22;2209;48.982;8.406;2023-03-08T05:54:55;6.60;94.60
4390;DHT22;2209;48.982;8.406;2023-03-08T05:57:17;6.60;94.70
4390;DHT22;2209;48.982;8.406;2023-03-08T05:59:40;6.60;94.70
4390;DHT22;2209;48.982;8.406;2023-03-08T06:02:02;6.60;94.70
4390;DHT22;2209;48.982;8.406;2023-03-08T06:04:24;6.60;94.70
4390;DHT22;2209;48.982;8.406;2023-03-08T06:06:46;6.60;94.70
4390;DHT22;2209;48.982;8.406;2023-03-08T06:09:09;6.60;94.80
4390;DHT22;2209;48.982;8.406;2023-03-08T06:11:31;6.60;94.80
4390;DHT22;2209;48.982;8.406;2023-03-08T06:13:53;6.60;94.80
4390;DHT22;2209;48.982;8.406;2023-03-08T06:16:16;6.60;94.80
4390;DHT22;2209;48.982;8.406;2023-03-08T06:18:40;6.60;94.90
4390;DHT22;2209;48.982;8.406;2023-03-08T06:21:04;6.60;94.90
4390;DHT22;2209;48.982;8.406;2023-03-08T06:23:30;6.60;95.00
4390;DHT22;2209;48.982;8.406;2023-03-08T06:25:53;6.60;95.00
4390;DHT22;2209;48.982;8.406;2023-03-08T06:28:15;6.60;95.00
4390;DHT22;2209;48.982;8.406;2023-03-08T06:30:37;6.60;95.10
4390;DHT22;2209;48.982;8.406;2023-03-08T06:33:00;6.60;95.10
4390;DHT22;2209;48.982;8.406;2023-03-08T06:35:23;6.60;95.20
4390;DHT22;2209;48.982;8.406;2023-03-08T06:37:45;6.60;95.40
4390;DHT22;2209;48.982;8.406;2023-03-08T06:40:08;6.60;95.60
4390;DHT22;2209;48.982;8.406;2023-03-08T06:42:31;6.60;95.90
4390;DHT22;2209;48.982;8.406;2023-03-08T06:44:53;6.60;97.20
4390;DHT22;2209;48.982;8.406;2023-03-08T06:47:15;6.60;97.80
4390;DHT22;2209;48.982;8.406;2023-03-08T06:49:39;6.60;98.50
4390;DHT22;2209;48.982;8.406;2023-03-08T06:52:01;6.50;98.90
4390;DHT22;2209;48.982;8.406;2023-03-08T06:54:23;6.50;99.50
4390;DHT22;2209;48.982;8.406;2023-03-08T06:56:46;6.50;99.90
4390;DHT22;2209;48.982;8.406;2023-03-08T06:59:08;6.50;99.90
4390;DHT22;2209;48.982;8.406;2023-03-08T07:01:30;6.50;99.90
4390;DHT22;2209;48.982;8.406;2023-03-08T07:03:52;6.40;99.90
4390;DHT22;2209;48.982;8.406;2023-03-08T07:06:15;6.40;99.90
4390;DHT22;2209;48.982;8.406;2023-03-08T07:08:37;6.40;99.90
4390;DHT22;2209;48.982;8.406;2023-03-08T07:11:00;6.30;99.90
4390;DHT22;2209;48.982;8.406;2023-03-08T07:13:22;6.30;99.90
4390;DHT22;2209;48.982;8.406;2023-03-08T07:15:44;6.30;99.90
4390;DHT22;2209;48.982;8.406;2023-03-08T07:18:06;6.30;99.90
4390;DHT22;2209;48.982;8.406;2023-03-08T07:20:28;6.30;99.90
4390;DHT22;2209;48.982;8.406;2023-03-08T07:22:52;6.30;99.90
4390;DHT22;2209;48.982;8.406;2023-03-08T07:25:17;6.30;99.90
4390;DHT22;2209;48.982;8.406;2023-03-08T07:27:39;6.30;99.90
4390;DHT22;2209;48.982;8.406;2023-03-08T07:30:01;6.30;99.90
4390;DHT22;2209;48.982;8.406;2023-03-08T07:32:23;6.30;99.90
4390;DHT22;2209;48.982;8.406;2023-03-08T07:34:48;6.30;99.90
4390;DHT22;2209;48.982;8.406;2023-03-08T07:37:11;6.30;99.90
4390;DHT22;2209;48.982;8.406;2023-03-08T07:39:34;6.30;99.90
4390;DHT22;2209;48.982;8.406;2023-03-08T07:41:56;6.30;99.90
4390;DHT22;2209;48.982;8.406;2023-03-08T07:44:18;6.30;99.90
4390;DHT22;2209;48.982;8.406;2023-03-08T07:46:40;6.40;99.90
4390;DHT22;2209;48.982;8.406;2023-03-08T07:49:02;6.40;99.90
4390;DHT22;2209;48.982;8.406;2023-03-08T07:51:30;6.40;99.90
4390;DHT22;2209;48.982;8.406;2023-03-08T07:53:52;6.40;99.90
4390;DHT22;2209;48.982;8.406;2023-03-08T07:56:15;6.40;99.90
4390;DHT22;2209;48.982;8.406;2023-03-08T07:58:38;6.40;99.90
4390;DHT22;2209;48.982;8.406;2023-03-08T08:01:00;6.40;99.90
4390;DHT22;2209;48.982;8.406;2023-03-08T08:03:22;6.40;99.90
4390;DHT22;2209;48.982;8.406;2023-03-08T08:05:44;6.40;99.90
4390;DHT22;2209;48.982;8.406;2023-03-08T08:08:06;6.40;99.90
4390;DHT22;2209;48.982;8.406;2023-03-08T08:10:29;6.40;99.90
4390;DHT22;2209;48.982;8.406;2023-03-08T08:12:52;6.40;99.90
4390;DHT22;2209;48.982;8.406;2023-03-08T08:15:14;6.40;99.90
4390;DHT22;2209;48.982;8.406;2023-03-08T08:17:37;6.40;99.90
4390;DHT22;2209;48.982;8.406;2023-03-08T08:19:59;6.30;99.90
4390;DHT22;2209;48.982;8.406;2023-03-08T08:22:21;6.30;99.90
4390;DHT22;2209;48.982;8.406;2023-03-08T08:24:44;6.30;99.90
4390;DHT22;2209;48.982;8.406;2023-03-08T08:27:06;6.40;99.90
4390;DHT22;2209;48.982;8.406;2023-03-08T08:29:29;6.40;99.90
4390;DHT22;2209;48.982;8.406;2023-03-08T08:31:51;6.40;99.90
4390;DHT22;2209;48.982;8.406;2023-03-08T08:34:13;6.40;99.90
4390;DHT22;2209;48.982;8.406;2023-03-08T08:36:35;6.40;99.90
4390;DHT22;2209;48.982;8.406;2023-03-08T08:38:57;6.40;99.90
4390;DHT22;2209;48.982;8.406;2023-03-08T08:41:20;6.40;99.90
4390;DHT22;2209;48.982;8.406;2023-03-08T08:43:44;6.40;99.90
4390;DHT22;2209;48.982;8.406;2023-03-08T08:46:07;6.30;99.90
4390;DHT22;2209;48.982;8.406;2023-03-08T08:48:30;6.30;99.90
4390;DHT22;2209;48.982;8.406;2023-03-08T08:50:53;6.30;99.90
4390;DHT22;2209;48.982;8.406;2023-03-08T08:53:16;6.30;99.90
4390;DHT22;2209;48.982;8.406;2023-03-08T08:55:38;6.30;99.90
4390;DHT22;2209;48.982;8.406;2023-03-08T08:58:01;6.30;99.90
4390;DHT22;2209;48.982;8.406;2023-03-08T09:00:23;6.30;99.90
4390;DHT22;2209;48.982;8.406;2023-03-08T09:02:47;6.30;99.90
4390;DHT22;2209;48.982;8.406;2023-03-08T09:05:09;6.30;99.90
4390;DHT22;2209;48.982;8.406;2023-03-08T09:07:31;6.20;99.90
4390;DHT22;2209;48.982;8.406;2023-03-08T09:09:53;6.30;99.90
4390;DHT22;2209;48.982;8.406;2023-03-08T09:12:15;6.30;99.90
4390;DHT22;2209;48.982;8.406;2023-03-08T09:14:37;6.20;99.90
4390;DHT22;2209;48.982;8.406;2023-03-08T09:16:59;6.20;99.90
4390;DHT22;2209;48.982;8.406;2023-03-08T09:19:23;6.30;99.90
4390;DHT22;2209;48.982;8.406;2023-03-08T09:21:45;6.30;99.90
4390;DHT22;2209;48.982;8.406;2023-03-08T09:24:07;6.30;99.90
4390;DHT22;2209;48.982;8.406;2023-03-08T09:26:30;6.30;99.90
4390;DHT22;2209;48.982;8.406;2023-03-08T09:28:53;6.30;99.90
4390;DHT22;2209;48.982;8.406;2023-03-08T09:31:16;6.30;99.90
4390;DHT22;2209;48.982;8.406;2023-03-08T09:33:39;6.30;99.90
4390;DHT22;2209;48.982;8.406;2023-03-08T09:36:03;6.30;99.90
4390;DHT22;2209;48.982;8.406;2023-03-08T09:38:25;6.30;99.90
4390;DHT22;2209;48.982;8.406;2023-03-08T09:40:55;6.30;99.90
4390;DHT22;2209;48.982;8.406;2023-03-08T09:43:27;6.30;99.90
4390;DHT22;2209;48.982;8.406;2023-03-08T09:45:52;6.30;99.90
4390;DHT22;2209;48.982;8.406;2023-03-08T09:48:19;6.30;99.90
4390;DHT22;2209;48.982;8.406;2023-03-08T09:50:46;6.40;99.90
4390;DHT22;2209;48.982;8.406;2023-03-08T09:53:17;6.40;99.90
4390;DHT22;2209;48.982;8.406;2023-03-08T09:55:46;6.40;99.90
4390;DHT22;2209;48.982;8.406;2023-03-08T09:58:16;6.40;99.90
4390;DHT22;2209;48.982;8.406;2023-03-08T10:00:41;6.40;99.90
4390;DHT22;2209;48.982;8.406;2023-03-08T10:03:31;6.40;99.90
4390;DHT22;2209;48.982;8.406;2023-03-08T10:05:59;6.40;99.90
4390;DHT22;2209;48.982;8.406;2023-03-08T10:08:31;6.40;99.90
4390;DHT22;2209;48.982;8.406;2023-03-08T10:10:57;6.40;99.90
4390;DHT22;2209;48.982;8.406;2023-03-08T10:13:29;6.40;99.90
4390;DHT22;2209;48.982;8.406;2023-03-08T10:16:01;6.40;99.90
4390;DHT22;2209;48.982;8.406;2023-03-08T10:18:29;6.40;99.90
4390;DHT22;2209;48.982;8.406;2023-03-08T10:20:52;6.40;99.90
4390;DHT22;2209;48.982;8.406;2023-03-08T10:23:19;6.40;99.90
4390;DHT22;2209;48.982;8.406;2023-03-08T10:25:44;6.40;99.90
4390;DHT22;2209;48.982;8.406;2023-03-08T10:28:11;6.40;99.90
4390;DHT22;2209;48.982;8.406;2023-03-08T10:30:36;6.40;99.90
4390;DHT22;2209;48.982;8.406;2023-03-08T10:33:00;6.40;99.90
4390;DHT22;2209;48.982;8.406;2023-03-08T10:35:32;6.40;99.90
4390;DHT22;2209;48.982;8.406;2023-03-08T10:37:54;6.40;99.90
4390;DHT22;2209;48.982;8.406;2023-03-08T10:40:19;6.40;99.90
4390;DHT22;2209;48.982;8.406;2023-03-08T10:42:50;6.40;99.90
4390;DHT22;2209;48.982;8.406;2023-03-08T10:45:16;6.40;99.90
4390;DHT22;2209;48.982;8.406;2023-03-08T10:47:41;6.50;99.90
4390;DHT22;2209;48.982;8.406;2023-03-08T10:50:15;6.50;99.90
4390;DHT22;2209;48.982;8.406;2023-03-08T10:52:39;6.50;99.90
4390;DHT22;2209;48.982;8.406;2023-03-08T10:55:03;6.50;99.90
4390;DHT22;2209;48.982;8.406;2023-03-08T10:57:25;6.50;99.90
4390;DHT22;2209;48.982;8.406;2023-03-08T10:59:49;6.50;99.90
4390;DHT22;2209;48.982;8.406;2023-03-08T11:02:16;6.50;99.90
4390;DHT22;2209;48.982;8.406;2023-03-08T11:04:50;6.60;99.90
4390;DHT22;2209;48.982;8.406;2023-03-08T11:07:20;6.60;99.90
4390;DHT22;2209;48.982;8.406;2023-03-08T11:09:43;6.60;99.90
4390;DHT22;2209;48.982;8.406;2023-03-08T11:12:20;6.60;99.90
4390;DHT22;2209;48.982;8.406;2023-03-08T11:14:43;6.60;99.90
4390;DHT22;2209;48.982;8.406;2023-03-08T11:17:15;6.60;99.90
4390;DHT22;2209;48.982;8.406;2023-03-08T11:20:01;6.70;99.90
4390;DHT22;2209;48.982;8.406;2023-03-08T11:22:41;6.70;99.90
4390;DHT22;2209;48.982;8.406;2023-03-08T11:25:26;6.70;99.90
4390;DHT22;2209;48.982;8.406;2023-03-08T11:28:03;6.80;99.90
4390;DHT22;2209;48.982;8.406;2023-03-08T11:30:37;6.80;99.90
4390;DHT22;2209;48.982;8.406;2023-03-08T11:33:22;6.90;99.90
4390;DHT22;2209;48.982;8.406;2023-03-08T11:35:50;7.10;99.90
4390;DHT22;2209;48.982;8.406;2023-03-08T11:38:18;7.40;99.90
4390;DHT22;2209;48.982;8.406;2023-03-08T11:40:51;7.50;99.90
4390;DHT22;2209;48.982;8.406;2023-03-08T11:43:26;7.70;99.90
4390;DHT22;2209;48.982;8.406;2023-03-08T11:45:54;7.90;99.90
4390;DHT22;2209;48.982;8.406;2023-03-08T11:48:34;8.10;99.90
4390;DHT22;2209;48.982;8.406;2023-03-08T11:51:03;8.20;99.90
4390;DHT22;2209;48.982;8.406;2023-03-08T11:53:37;8.30;99.90
4390;DHT22;2209;48.982;8.406;2023-03-08T11:56:15;8.40;99.90
4390;DHT22;2209;48.982;8.406;2023-03-08T11:58:44;8.50;99.90
4390;DHT22;2209;48.982;8.406;2023-03-08T12:01:12;8.60;99.90
4390;DHT22;2209;48.982;8.406;2023-03-08T12:03:40;8.60;99.90
4390;DHT22;2209;48.982;8.406;2023-03-08T12:06:08;8.70;99.90
4390;DHT22;2209;48.982;8.406;2023-03-08T12:08:36;8.70;99.90
4390;DHT22;2209;48.982;8.406;2023-03-08T12:11:02;8.80;99.90
4390;DHT22;2209;48.982;8.406;2023-03-08T12:13:31;8.80;99.90
4390;DHT22;2209;48.982;8.406;2023-03-08T12:15:56;8.90;99.90
4390;DHT22;2209;48.982;8.406;2023-03-08T12:18:22;9.00;99.90
4390;DHT22;2209;48.982;8.406;2023-03-08T12:20:47;9.00;99.90
4390;DHT22;2209;48.982;8.406;2023-03-08T12:23:18;9.10;99.90
4390;DHT22;2209;48.982;8.406;2023-03-08T12:25:47;9.20;99.90
4390;DHT22;2209;48.982;8.406;2023-03-08T12:28:15;9.30;99.90
4390;DHT22;2209;48.982;8.406;2023-03-08T12:30:50;9.30;99.90
4390;DHT22;2209;48.982;8.406;2023-03-08T12:33:16;9.30;99.90
4390;DHT22;2209;48.982;8.406;2023-03-08T12:35:50;9.40;99.90
4390;DHT22;2209;48.982;8.406;2023-03-08T12:38:29;9.50;99.90
4390;DHT22;2209;48.982;8.406;2023-03-08T12:40:53;9.50;99.90
4390;DHT22;2209;48.982;8.406;2023-03-08T12:43:28;9.60;99.90
4390;DHT22;2209;48.982;8.406;2023-03-08T12:46:01;9.60;99.90
4390;DHT22;2209;48.982;8.406;2023-03-08T12:48:25;9.60;99.90
4390;DHT22;2209;48.982;8.406;2023-03-08T12:50:57;9.60;99.90
4390;DHT22;2209;48.982;8.406;2023-03-08T12:53:27;9.70;99.90
4390;DHT22;2209;48.982;8.406;2023-03-08T12:56:20;9.70;99.90
4390;DHT22;2209;48.982;8.406;2023-03-08T12:58:49;9.70;99.90
4390;DHT22;2209;48.982;8.406;2023-03-08T13:04:05;9.90;99.90
4390;DHT22;2209;48.982;8.406;2023-03-08T13:09:21;9.90;99.90
4390;DHT22;2209;48.982;8.406;2023-03-08T13:11:50;10.00;99.90
4390;DHT22;2209;48.982;8.406;2023-03-08T13:14:25;10.10;99.90
4390;DHT22;2209;48.982;8.406;2023-03-08T13:16:47;10.10;99.90
4390;DHT22;2209;48.982;8.406;2023-03-08T13:19:17;10.10;99.90
4390;DHT22;2209;48.982;8.406;2023-03-08T13:21:49;10.10;99.90
4390;DHT22;2209;48.982;8.406;2023-03-08T13:24:18;10.10;99.90
4390;DHT22;2209;48.982;8.406;2023-03-08T13:26:51;10.10;99.90
4390;DHT22;2209;48.982;8.406;2023-03-08T13:29:17;10.10;99.90
4390;DHT22;2209;48.982;8.406;2023-03-08T13:31:40;10.20;99.90
4390;DHT22;2209;48.982;8.406;2023-03-08T13:34:02;10.20;99.90
4390;DHT22;2209;48.982;8.406;2023-03-08T13:36:26;10.20;99.90
4390;DHT22;2209;48.982;8.406;2023-03-08T13:38:58;10.20;99.90
4390;DHT22;2209;48.982;8.406;2023-03-08T13:41:33;10.20;99.90
4390;DHT22;2209;48.982;8.406;2023-03-08T13:43:59;10.20;99.90
4390;DHT22;2209;48.982;8.406;2023-03-08T13:46:22;10.20;99.90
4390;DHT22;2209;48.982;8.406;2023-03-08T13:48:44;10.20;99.90
4390;DHT22;2209;48.982;8.406;2023-03-08T13:51:07;10.20;99.90
4390;DHT22;2209;48.982;8.406;2023-03-08T13:53:31;10.10;99.90
4390;DHT22;2209;48.982;8.406;2023-03-08T13:55:57;10.10;99.90
4390;DHT22;2209;48.982;8.406;2023-03-08T13:58:26;10.00;99.90
4390;DHT22;2209;48.982;8.406;2023-03-08T14:00:57;10.00;99.90
4390;DHT22;2209;48.982;8.406;2023-03-08T14:03:20;10.00;99.90
4390;DHT22;2209;48.982;8.406;2023-03-08T14:05:42;9.90;99.90
4390;DHT22;2209;48.982;8.406;2023-03-08T14:08:14;10.00;99.90
4390;DHT22;2209;48.982;8.406;2023-03-08T14:10:40;10.00;99.90
4390;DHT22;2209;48.982;8.406;2023-03-08T14:13:13;9.90;99.90
4390;DHT22;2209;48.982;8.406;2023-03-08T14:15:37;10.00;99.90
4390;DHT22;2209;48.982;8.406;2023-03-08T14:18:00;10.00;99.90
4390;DHT22;2209;48.982;8.406;2023-03-08T14:20:24;10.00;99.90
4390;DHT22;2209;48.982;8.406;2023-03-08T14:22:48;10.00;99.90
4390;DHT22;2209;48.982;8.406;2023-03-08T14:25:21;10.00;99.90
4390;DHT22;2209;48.982;8.406;2023-03-08T14:27:44;10.10;99.90
4390;DHT22;2209;48.982;8.406;2023-03-08T14:30:13;10.10;99.90
4390;DHT22;2209;48.982;8.406;2023-03-08T14:32:37;10.10;99.90
4390;DHT22;2209;48.982;8.406;2023-03-08T14:35:05;10.20;99.90
4390;DHT22;2209;48.982;8.406;2023-03-08T14:37:29;10.20;99.90
4390;DHT22;2209;48.982;8.406;2023-03-08T14:39:53;10.30;99.90
4390;DHT22;2209;48.982;8.406;2023-03-08T14:42:19;10.30;99.90
4390;DHT22;2209;48.982;8.406;2023-03-08T14:44:49;10.30;99.90
4390;DHT22;2209;48.982;8.406;2023-03-08T14:47:21;10.30;99.90
4390;DHT22;2209;48.982;8.406;2023-03-08T14:49:53;10.40;99.90
4390;DHT22;2209;48.982;8.406;2023-03-08T14:52:19;10.40;99.90
4390;DHT22;2209;48.982;8.406;2023-03-08T14:54:41;10.40;99.90
4390;DHT22;2209;48.982;8.406;2023-03-08T14:57:15;10.40;99.90
4390;DHT22;2209;48.982;8.406;2023-03-08T14:59:38;10.50;99.90
4390;DHT22;2209;48.982;8.406;2023-03-08T15:02:01;10.60;99.90
4390;DHT22;2209;48.982;8.406;2023-03-08T15:04:24;10.70;99.90
4390;DHT22;2209;48.982;8.406;2023-03-08T15:06:47;10.70;99.90
4390;DHT22;2209;48.982;8.406;2023-03-08T15:09:12;10.60;99.90
4390;DHT22;2209;48.982;8.406;2023-03-08T15:11:35;10.60;99.90
4390;DHT22;2209;48.982;8.406;2023-03-08T15:13:57;10.60;99.90
4390;DHT22;2209;48.982;8.406;2023-03-08T15:16:20;10.60;99.90
4390;DHT22;2209;48.982;8.406;2023-03-08T15:18:42;10.60;99.90
4390;DHT22;2209;48.982;8.406;2023-03-08T15:21:08;10.50;99.90
4390;DHT22;2209;48.982;8.406;2023-03-08T15:23:34;10.50;99.90
4390;DHT22;2209;48.982;8.406;2023-03-08T15:25:57;10.50;99.90
4390;DHT22;2209;48.982;8.406;2023-03-08T15:28:21;10.50;99.90
4390;DHT22;2209;48.982;8.406;2023-03-08T15:30:43;10.60;99.90
4390;DHT22;2209;48.982;8.406;2023-03-08T15:33:05;10.60;99.90
4390;DHT22;2209;48.982;8.406;2023-03-08T15:35:28;10.60;99.90
4390;DHT22;2209;48.982;8.406;2023-03-08T15:37:52;10.70;99.90
4390;DHT22;2209;48.982;8.406;2023-03-08T15:40:16;10.80;99.90
4390;DHT22;2209;48.982;8.406;2023-03-08T15:42:38;10.80;99.90
4390;DHT22;2209;48.982;8.406;2023-03-08T15:45:00;10.80;99.90
4390;DHT22;2209;48.982;8.406;2023-03-08T15:47:22;10.90;99.90
4390;DHT22;2209;48.982;8.406;2023-03-08T15:49:44;10.90;99.90
4390;DHT22;2209;48.982;8.406;2023-03-08T15:52:10;11.00;99.90
4390;DHT22;2209;48.982;8.406;2023-03-08T15:54:34;11.00;99.90
4390;DHT22;2209;48.982;8.406;2023-03-08T15:56:57;11.10;99.90
4390;DHT22;2209;48.982;8.406;2023-03-08T15:59:19;11.10;99.90
4390;DHT22;2209;48.982;8.406;2023-03-08T16:01:41;11.10;99.90
4390;DHT22;2209;48.982;8.406;2023-03-08T16:04:03;11.20;99.90